Time;durP1;ratioP1;P1;durP2;ratioP2;P2;SDS_P1;SDS_P2;PMS_P1;PMS_P2;Temp;Humidity;BMP_temperature;BMP_pressure;BME280_temperature;BME280_humidity;BME280_pressure;Samples;Min_cycle;Max_cycle;Signal;HPM_P1;HPM_P2
2022/12/31 00:00:15;;;;;;;0.75;0.10;;;16.10;61.40;;;;;;5042412;28;20068;-45
2022/12/31 00:02:42;;;;;;;0.30;0.20;;;16.20;61.40;;;;;;5041576;28;20053;-46
2022/12/31 00:05:11;;;;;;;0.13;0.13;;;16.20;61.30;;;;;;5043896;28;20512;-45
2022/12/31 00:07:38;;;;;;;0.68;0.20;;;16.30;61.30;;;;;;5043387;28;20056;-47
2022/12/31 00:10:06;;;;;;;1.08;0.17;;;16.30;61.20;;;;;;5041729;28;20049;-46
2022/12/31 00:12:33;;;;;;;0.10;0.10;;;16.30;61.20;;;;;;5040799;28;20127;-46
2022/12/31 00:15:01;;;;;;;0.25;0.10;;;16.30;61.10;;;;;;5042821;28;20095;-43
2022/12/31 00:17:28;;;;;;;0.10;0.10;;;16.30;61.10;;;;;;5043699;28;20057;-44
2022/12/31 00:19:55;;;;;;;0.20;0.20;;;16.30;60.80;;;;;;5042187;28;20045;-46
2022/12/31 00:22:24;;;;;;;1.27;0.05;;;16.40;60.80;;;;;;5043756;28;20088;-45
2022/12/31 00:24:51;;;;;;;0.40;0.10;;;16.40;61.00;;;;;;5040891;28;20060;-48
2022/12/31 00:27:18;;;;;;;0.20;0.20;;;16.40;61.10;;;;;;5039404;28;20052;-44
2022/12/31 00:29:45;;;;;;;0.05;0.05;;;16.40;61.10;;;;;;5041813;28;20068;-45
2022/12/31 00:32:12;;;;;;;0.00;0.00;;;16.40;61.10;;;;;;5041113;28;20053;-46
2022/12/31 00:34:40;;;;;;;0.10;0.10;;;16.40;61.00;;;;;;5041612;28;20041;-43
2022/12/31 00:37:07;;;;;;;0.10;0.10;;;16.50;61.10;;;;;;5042595;28;20052;-45
2022/12/31 00:39:35;;;;;;;0.00;0.00;;;16.50;61.20;;;;;;5040233;28;20119;-46
2022/12/31 00:42:03;;;;;;;0.13;0.05;;;16.50;61.20;;;;;;5041537;28;20052;-47
2022/12/31 00:44:31;;;;;;;0.20;0.00;;;16.50;61.10;;;;;;5040881;28;21679;-48
2022/12/31 00:46:58;;;;;;;0.00;0.00;;;16.50;61.20;;;;;;5041551;28;20053;-44
2022/12/31 00:49:25;;;;;;;0.10;0.00;;;16.50;61.20;;;;;;5042576;28;20056;-47
2022/12/31 00:51:52;;;;;;;0.00;0.00;;;16.60;61.40;;;;;;5041693;28;20052;-47
2022/12/31 00:54:20;;;;;;;0.00;0.00;;;16.60;61.40;;;;;;5040966;28;20045;-47
2022/12/31 00:56:48;;;;;;;0.10;0.00;;;16.60;61.30;;;;;;5040799;28;20060;-49
2022/12/31 00:59:15;;;;;;;0.00;0.00;;;16.60;61.00;;;;;;5039165;28;20060;-45
2022/12/31 01:01:43;;;;;;;0.00;0.00;;;16.70;61.10;;;;;;5042593;28;20645;-47
2022/12/31 01:04:14;;;;;;;0.08;0.08;;;16.60;60.90;;;;;;5042219;28;20614;-47
2022/12/31 01:06:42;;;;;;;0.43;0.15;;;16.60;61.20;;;;;;5042435;28;20048;-49
2022/12/31 01:09:09;;;;;;;0.05;0.00;;;16.70;61.30;;;;;;5041200;28;20048;-47
2022/12/31 01:11:37;;;;;;;0.95;0.10;;;16.70;61.50;;;;;;5042070;28;20049;-46
2022/12/31 01:14:07;;;;;;;0.98;0.00;;;16.70;61.50;;;;;;5040045;28;20413;-46
2022/12/31 01:16:38;;;;;;;1.15;0.00;;;16.70;61.40;;;;;;5041778;28;20484;-46
2022/12/31 01:19:07;;;;;;;0.00;0.00;;;16.70;61.30;;;;;;5042010;28;20489;-44
2022/12/31 01:21:37;;;;;;;0.03;0.00;;;16.80;61.20;;;;;;5041516;28;20069;-43
2022/12/31 01:24:05;;;;;;;1.02;0.10;;;16.80;61.10;;;;;;5040690;28;20064;-42
2022/12/31 01:26:32;;;;;;;0.10;0.00;;;16.80;61.00;;;;;;5041132;28;20048;-43
2022/12/31 01:29:00;;;;;;;0.10;0.00;;;16.80;61.10;;;;;;5040968;28;20480;-45
2022/12/31 01:31:28;;;;;;;0.10;0.10;;;16.80;61.20;;;;;;5040738;28;20068;-47
2022/12/31 01:33:56;;;;;;;0.05;0.05;;;16.80;61.20;;;;;;5041181;28;20111;-46
2022/12/31 01:36:24;;;;;;;0.00;0.00;;;16.90;61.50;;;;;;5041765;28;20351;-50
2022/12/31 01:38:52;;;;;;;0.05;0.00;;;16.80;61.30;;;;;;5039402;28;20497;-44
2022/12/31 01:41:21;;;;;;;0.05;0.00;;;16.90;61.50;;;;;;5041372;28;20055;-45
2022/12/31 01:43:53;;;;;;;0.00;0.00;;;16.90;61.60;;;;;;5038803;28;20052;-47
2022/12/31 01:46:26;;;;;;;0.20;0.00;;;16.90;61.50;;;;;;5040927;28;20052;-45
2022/12/31 01:48:59;;;;;;;0.13;0.00;;;16.90;61.50;;;;;;5039379;28;20519;-43
2022/12/31 01:51:29;;;;;;;1.50;0.20;;;17.00;61.50;;;;;;5039174;28;20064;-44
2022/12/31 01:53:58;;;;;;;0.05;0.00;;;16.90;61.50;;;;;;5037907;28;20075;-47
2022/12/31 01:56:26;;;;;;;0.70;0.00;;;16.90;61.50;;;;;;5040935;28;20513;-46
2022/12/31 01:58:56;;;;;;;0.00;0.00;;;17.00;61.50;;;;;;5038405;28;20057;-47
2022/12/31 02:01:28;;;;;;;1.08;0.10;;;16.90;61.60;;;;;;5041361;28;20052;-47
2022/12/31 02:03:57;;;;;;;0.13;0.10;;;16.90;61.60;;;;;;5040772;28;20048;-44
2022/12/31 02:06:29;;;;;;;0.00;0.00;;;16.90;61.60;;;;;;5034621;28;20064;-47
2022/12/31 02:08:58;;;;;;;0.95;0.00;;;17.00;61.60;;;;;;5040179;28;20064;-44
2022/12/31 02:11:28;;;;;;;0.93;0.00;;;17.00;61.50;;;;;;5041184;28;20056;-48
2022/12/31 02:13:58;;;;;;;0.85;0.00;;;17.00;61.60;;;;;;5040585;28;20064;-46
2022/12/31 02:16:34;;;;;;;0.10;0.00;;;17.00;61.50;;;;;;5040653;28;20428;-48
2022/12/31 02:19:18;;;;;;;0.00;0.00;;;17.00;61.20;;;;;;5039964;28;20057;-49
2022/12/31 02:21:55;;;;;;;0.10;0.00;;;17.00;61.20;;;;;;5040342;28;20122;-46
2022/12/31 02:24:50;;;;;;;0.20;0.00;;;17.00;61.20;;;;;;5037933;28;20048;-47
2022/12/31 02:27:33;;;;;;;1.65;0.10;;;17.00;60.90;;;;;;5038419;28;20060;-50
2022/12/31 02:30:14;;;;;;;0.25;0.05;;;17.00;60.20;;;;;;5039599;28;20064;-49
2022/12/31 02:32:53;;;;;;;0.10;0.00;;;17.00;60.10;;;;;;5041509;28;20056;-48
2022/12/31 02:35:26;;;;;;;0.10;0.10;;;17.00;60.40;;;;;;5036459;28;20056;-49
2022/12/31 02:38:00;;;;;;;1.33;0.00;;;17.00;60.10;;;;;;5035110;28;20507;-43
2022/12/31 02:40:28;;;;;;;0.10;0.10;;;17.00;60.20;;;;;;5037953;28;20053;-48
2022/12/31 02:42:55;;;;;;;0.03;0.00;;;17.00;60.00;;;;;;5038928;28;20491;-47
2022/12/31 02:45:29;;;;;;;0.52;0.00;;;17.00;59.80;;;;;;5038516;28;20579;-49
2022/12/31 02:48:10;;;;;;;0.05;0.00;;;16.90;59.30;;;;;;5041354;28;20053;-49
2022/12/31 02:50:54;;;;;;;0.55;0.17;;;16.90;59.80;;;;;;5039801;28;20056;-50
2022/12/31 02:53:41;;;;;;;0.35;0.03;;;17.00;59.50;;;;;;5038161;28;20061;-47
2022/12/31 02:56:16;;;;;;;0.10;0.00;;;17.00;59.80;;;;;;5040705;28;20052;-47
2022/12/31 03:04:34;;;;;;;0.00;0.00;;;17.00;59.50;;;;;;5045397;28;20068;-47
2022/12/31 03:07:04;;;;;;;0.13;0.00;;;17.00;59.30;;;;;;5038180;28;20053;-47
2022/12/31 03:09:32;;;;;;;0.52;0.10;;;17.00;59.40;;;;;;5038832;28;20057;-46
2022/12/31 03:14:44;;;;;;;0.22;0.10;;;17.00;59.40;;;;;;5046603;28;20408;-48
2022/12/31 03:17:13;;;;;;;0.90;0.13;;;17.00;59.00;;;;;;5040286;28;20049;-50
2022/12/31 03:22:31;;;;;;;0.03;0.00;;;16.90;59.00;;;;;;5046131;28;20051;-49
2022/12/31 03:27:46;;;;;;;3.97;0.10;;;17.00;59.40;;;;;;5043749;28;20086;-46
2022/12/31 03:30:15;;;;;;;1.88;0.38;;;17.00;59.20;;;;;;5040347;28;20061;-48
2022/12/31 03:32:45;;;;;;;0.00;0.00;;;17.00;59.40;;;;;;5036966;28;20413;-48
2022/12/31 03:35:13;;;;;;;1.42;0.20;;;17.00;59.10;;;;;;5041600;28;20049;-50
2022/12/31 03:37:41;;;;;;;1.20;0.55;;;17.00;58.90;;;;;;5043706;28;20056;-48
2022/12/31 03:40:11;;;;;;;1.08;0.05;;;17.00;59.00;;;;;;5042419;28;20055;-50
2022/12/31 03:42:38;;;;;;;0.20;0.10;;;17.00;59.10;;;;;;5042262;28;20061;-46
2022/12/31 03:45:06;;;;;;;1.55;0.10;;;17.00;59.10;;;;;;5044226;28;20053;-53
2022/12/31 03:47:34;;;;;;;1.55;0.43;;;17.00;59.10;;;;;;5042625;28;20056;-46
2022/12/31 03:50:02;;;;;;;0.10;0.10;;;17.00;59.00;;;;;;5043119;28;20056;-47
2022/12/31 03:52:30;;;;;;;1.00;0.13;;;17.10;59.10;;;;;;5041149;28;20059;-52
2022/12/31 03:54:57;;;;;;;0.13;0.10;;;17.00;59.00;;;;;;5041480;28;20409;-50
2022/12/31 03:57:24;;;;;;;0.10;0.00;;;17.10;59.00;;;;;;5038894;28;20064;-48
2022/12/31 03:59:51;;;;;;;0.20;0.00;;;17.10;59.00;;;;;;5038006;28;20048;-50
2022/12/31 04:02:19;;;;;;;0.00;0.00;;;17.10;59.60;;;;;;5043799;28;20052;-50
2022/12/31 04:04:46;;;;;;;0.08;0.08;;;17.10;59.30;;;;;;5041550;28;20492;-51
2022/12/31 04:07:14;;;;;;;0.00;0.00;;;17.10;59.10;;;;;;5042056;28;20056;-49
2022/12/31 04:09:42;;;;;;;0.00;0.00;;;17.10;58.80;;;;;;5042230;28;20048;-50
2022/12/31 04:12:09;;;;;;;0.00;0.00;;;17.10;59.00;;;;;;5043237;28;20068;-46
2022/12/31 04:14:36;;;;;;;0.00;0.00;;;17.20;59.20;;;;;;5040308;28;20056;-47
2022/12/31 04:17:03;;;;;;;0.15;0.10;;;17.20;59.10;;;;;;5042571;28;20049;-47
2022/12/31 04:19:30;;;;;;;0.50;0.10;;;17.20;59.10;;;;;;5043623;28;20087;-50
2022/12/31 04:21:58;;;;;;;0.17;0.10;;;17.20;59.10;;;;;;5040245;28;20498;-48
2022/12/31 04:24:27;;;;;;;0.45;0.10;;;17.20;58.90;;;;;;5040965;28;20053;-46
2022/12/31 04:26:54;;;;;;;0.90;0.20;;;17.20;59.10;;;;;;5043478;28;20057;-48
2022/12/31 04:29:21;;;;;;;0.73;0.10;;;17.20;59.00;;;;;;5041126;28;20374;-49
2022/12/31 04:31:48;;;;;;;0.30;0.10;;;17.30;59.00;;;;;;5042823;28;20053;-47
2022/12/31 04:34:16;;;;;;;0.00;0.00;;;17.30;59.00;;;;;;5041657;28;20413;-48
2022/12/31 04:36:43;;;;;;;1.20;0.20;;;17.30;58.70;;;;;;5038357;28;20048;-47
2022/12/31 04:39:10;;;;;;;0.90;0.10;;;17.30;58.90;;;;;;5037203;28;20695;-48
2022/12/31 04:41:39;;;;;;;0.43;0.20;;;17.30;58.70;;;;;;5034857;28;20049;-52
2022/12/31 04:44:06;;;;;;;0.30;0.05;;;17.30;58.80;;;;;;5040718;28;20056;-51
2022/12/31 04:46:34;;;;;;;0.40;0.10;;;17.30;58.70;;;;;;5037350;28;20048;-50
2022/12/31 04:49:01;;;;;;;0.95;0.10;;;17.30;58.80;;;;;;5041882;28;20053;-48
2022/12/31 04:51:30;;;;;;;3.30;0.17;;;17.30;59.10;;;;;;5041251;28;20056;-49
2022/12/31 04:53:58;;;;;;;0.88;0.20;;;17.30;59.10;;;;;;5035340;28;20056;-50
2022/12/31 04:56:25;;;;;;;0.28;0.20;;;17.40;58.80;;;;;;5040922;28;20056;-47
2022/12/31 04:58:54;;;;;;;0.32;0.28;;;17.40;58.90;;;;;;5039091;28;20049;-46
2022/12/31 05:01:22;;;;;;;0.40;0.17;;;17.40;58.80;;;;;;5041104;28;20501;-48
2022/12/31 05:03:50;;;;;;;0.63;0.30;;;17.40;58.70;;;;;;5043341;28;20057;-52
2022/12/31 05:06:19;;;;;;;1.85;0.20;;;17.40;58.60;;;;;;5041954;28;20420;-49
2022/12/31 05:08:47;;;;;;;0.73;0.40;;;17.40;58.30;;;;;;5040798;28;20061;-51
2022/12/31 05:11:15;;;;;;;0.52;0.20;;;17.40;58.20;;;;;;5041234;28;20056;-48
2022/12/31 05:13:42;;;;;;;1.95;0.43;;;17.40;58.20;;;;;;5041701;28;20049;-48
2022/12/31 05:16:11;;;;;;;0.17;0.17;;;17.40;58.20;;;;;;5042578;28;20052;-50
2022/12/31 05:18:38;;;;;;;1.08;0.20;;;17.40;58.40;;;;;;5042997;28;20064;-52
2022/12/31 05:21:08;;;;;;;0.28;0.10;;;17.40;58.40;;;;;;5044096;28;20057;-49
2022/12/31 05:23:35;;;;;;;3.15;0.20;;;17.40;58.60;;;;;;5042484;28;20061;-48
2022/12/31 05:26:02;;;;;;;1.98;0.17;;;17.50;58.40;;;;;;5043106;28;20053;-45
2022/12/31 05:28:31;;;;;;;1.45;0.20;;;17.50;58.30;;;;;;5040544;28;20049;-43
2022/12/31 05:30:59;;;;;;;2.25;0.57;;;17.50;58.20;;;;;;5040629;28;20069;-47
2022/12/31 05:33:27;;;;;;;1.63;0.88;;;17.50;58.40;;;;;;5043785;28;20424;-44
2022/12/31 05:35:57;;;;;;;1.45;0.30;;;17.50;58.20;;;;;;5039146;28;20516;-48
2022/12/31 05:38:24;;;;;;;2.13;0.40;;;17.50;58.30;;;;;;5040456;28;20052;-53
2022/12/31 05:40:59;;;;;;;1.50;0.20;;;17.50;58.30;;;;;;5042876;28;20416;-51
2022/12/31 05:43:26;;;;;;;2.53;0.30;;;17.60;58.20;;;;;;5043085;28;20056;-47
2022/12/31 05:45:54;;;;;;;0.75;0.57;;;17.60;58.10;;;;;;5040939;28;20053;-46
2022/12/31 05:48:21;;;;;;;1.23;0.30;;;17.50;57.90;;;;;;5041880;28;20057;-47
2022/12/31 05:50:50;;;;;;;1.67;0.30;;;17.60;57.70;;;;;;5042109;28;20579;-50
2022/12/31 05:53:17;;;;;;;1.30;0.20;;;17.60;57.50;;;;;;5041228;28;20386;-50
2022/12/31 05:55:46;;;;;;;0.55;0.40;;;17.60;57.90;;;;;;5042117;28;20060;-50
2022/12/31 05:58:14;;;;;;;1.48;0.30;;;17.60;57.90;;;;;;5042188;28;20545;-48
2022/12/31 06:00:42;;;;;;;1.27;0.30;;;17.60;57.60;;;;;;5042374;28;20060;-48
2022/12/31 06:03:09;;;;;;;1.00;0.40;;;17.60;57.80;;;;;;5043012;28;20057;-45
2022/12/31 06:05:40;;;;;;;1.45;0.30;;;17.60;57.90;;;;;;5042034;28;20055;-44
2022/12/31 06:08:08;;;;;;;1.25;0.22;;;17.60;57.90;;;;;;5042493;28;20056;-48
2022/12/31 06:10:36;;;;;;;0.80;0.28;;;17.70;57.90;;;;;;5039761;28;20432;-48
2022/12/31 06:13:03;;;;;;;0.88;0.38;;;17.70;57.80;;;;;;5041834;28;20059;-46
2022/12/31 06:15:30;;;;;;;1.50;0.52;;;17.70;57.70;;;;;;5043100;28;20049;-48
2022/12/31 06:17:57;;;;;;;0.52;0.30;;;17.70;57.90;;;;;;5043152;28;20064;-50
2022/12/31 06:20:25;;;;;;;0.75;0.50;;;17.70;57.70;;;;;;5042508;28;20052;-47
2022/12/31 06:22:52;;;;;;;1.15;0.43;;;17.70;57.80;;;;;;5042650;28;20385;-46
2022/12/31 06:25:20;;;;;;;0.95;0.40;;;17.70;57.90;;;;;;5040975;28;20508;-48
2022/12/31 06:27:48;;;;;;;2.03;0.65;;;17.70;57.60;;;;;;5042057;28;20055;-47
2022/12/31 06:30:15;;;;;;;2.92;0.40;;;17.70;57.40;;;;;;5042989;28;20057;-47
2022/12/31 06:32:42;;;;;;;1.50;0.43;;;17.70;57.50;;;;;;5040436;28;20053;-51
2022/12/31 06:35:10;;;;;;;2.45;0.50;;;17.80;57.70;;;;;;5042048;28;20523;-50
2022/12/31 06:37:37;;;;;;;2.10;0.65;;;17.70;57.80;;;;;;5040502;28;20056;-48
2022/12/31 06:40:05;;;;;;;2.70;0.50;;;17.80;57.70;;;;;;5041095;28;20512;-45
2022/12/31 06:42:34;;;;;;;1.23;0.50;;;17.80;57.70;;;;;;5040263;28;20053;-48
2022/12/31 06:45:01;;;;;;;1.08;0.40;;;17.80;57.70;;;;;;5041946;28;20381;-48
2022/12/31 06:47:28;;;;;;;2.45;0.50;;;17.80;57.60;;;;;;5042056;28;20049;-51
2022/12/31 06:49:56;;;;;;;4.68;0.45;;;17.80;57.70;;;;;;5042202;28;20051;-49
2022/12/31 06:52:23;;;;;;;2.95;0.45;;;17.80;57.60;;;;;;5040297;28;20045;-51
2022/12/31 06:54:51;;;;;;;5.97;3.42;;;17.90;57.40;;;;;;5039789;28;20048;-46
2022/12/31 06:57:19;;;;;;;26.45;12.80;;;17.90;57.30;;;;;;5039688;28;20061;-46
2022/12/31 06:59:48;;;;;;;13.30;5.38;;;17.90;57.20;;;;;;5039529;28;20436;-44
2022/12/31 07:02:26;;;;;;;12.65;7.10;;;17.90;57.20;;;;;;5036834;28;20731;-47
2022/12/31 07:05:19;;;;;;;6.80;3.50;;;17.90;56.90;;;;;;5041271;28;20500;-51
2022/12/31 07:07:58;;;;;;;2.95;2.10;;;17.90;57.00;;;;;;5033423;28;20049;-48
2022/12/31 07:10:36;;;;;;;5.60;2.38;;;17.90;56.80;;;;;;5043765;28;20049;-48
2022/12/31 07:13:29;;;;;;;5.85;2.33;;;17.90;56.90;;;;;;5045251;28;20060;-48
2022/12/31 07:16:17;;;;;;;3.72;1.75;;;17.90;56.70;;;;;;5043055;28;20052;-44
2022/12/31 07:18:50;;;;;;;6.18;1.45;;;17.90;56.80;;;;;;5045879;28;20056;-46
2022/12/31 07:21:25;;;;;;;1.98;1.27;;;17.90;56.90;;;;;;5046087;28;20063;-48
2022/12/31 07:23:52;;;;;;;1.95;0.98;;;18.00;56.90;;;;;;5044178;28;20052;-48
2022/12/31 07:26:34;;;;;;;3.35;1.02;;;17.90;56.80;;;;;;5045765;28;20053;-50
2022/12/31 07:29:10;;;;;;;3.00;0.65;;;18.00;56.80;;;;;;5044025;28;20045;-51
2022/12/31 07:31:55;;;;;;;1.20;0.73;;;18.00;56.70;;;;;;5045507;28;20076;-48
2022/12/31 07:34:28;;;;;;;1.98;0.80;;;17.90;56.60;;;;;;5043682;28;20092;-43
2022/12/31 07:37:03;;;;;;;1.73;0.77;;;17.90;56.60;;;;;;5045923;28;20064;-47
2022/12/31 07:39:37;;;;;;;1.90;0.50;;;17.90;56.60;;;;;;5039685;28;20056;-47
2022/12/31 07:42:13;;;;;;;1.73;0.70;;;18.00;56.80;;;;;;5044703;28;20056;-46
2022/12/31 07:44:50;;;;;;;4.32;0.82;;;17.90;56.80;;;;;;5044725;28;20060;-52
2022/12/31 07:47:22;;;;;;;1.52;0.63;;;18.00;56.70;;;;;;5043681;28;20485;-45
2022/12/31 07:49:51;;;;;;;2.15;0.73;;;18.00;56.50;;;;;;5045058;28;20049;-47
2022/12/31 07:52:19;;;;;;;2.58;0.70;;;18.00;56.50;;;;;;5044939;28;20052;-51
2022/12/31 07:54:47;;;;;;;3.25;0.90;;;18.00;56.50;;;;;;5043890;28;20057;-51
2022/12/31 07:57:17;;;;;;;1.35;0.60;;;18.00;56.90;;;;;;5044940;28;20053;-50
2022/12/31 07:59:58;;;;;;;2.67;1.02;;;18.00;56.40;;;;;;5043426;28;20413;-50
2022/12/31 08:02:41;;;;;;;2.08;0.50;;;18.00;56.10;;;;;;5043006;28;20052;-49
2022/12/31 08:05:15;;;;;;;1.17;0.40;;;18.00;56.20;;;;;;5041070;28;20045;-48
2022/12/31 08:07:48;;;;;;;3.58;0.77;;;18.00;56.30;;;;;;5041548;28;20405;-51
2022/12/31 08:10:25;;;;;;;1.50;0.50;;;18.00;56.30;;;;;;5039504;28;20397;-49
2022/12/31 08:13:00;;;;;;;1.73;0.73;;;18.00;55.80;;;;;;5041422;28;20053;-50
2022/12/31 08:15:28;;;;;;;2.40;0.70;;;18.00;56.00;;;;;;5040487;28;20057;-51
2022/12/31 08:17:57;;;;;;;1.25;0.60;;;18.00;56.00;;;;;;5043500;28;20053;-49
2022/12/31 08:20:26;;;;;;;2.97;0.60;;;18.00;55.80;;;;;;5042694;28;20064;-45
2022/12/31 08:23:19;;;;;;;2.33;0.60;;;18.00;56.00;;;;;;5043904;28;20053;-50
2022/12/31 08:26:13;;;;;;;2.05;0.88;;;17.90;56.00;;;;;;5040837;28;20052;-48
2022/12/31 08:28:56;;;;;;;1.50;0.60;;;18.00;55.90;;;;;;5043077;28;20048;-48
2022/12/31 08:31:31;;;;;;;1.50;0.60;;;18.00;56.00;;;;;;5044420;28;20068;-49
2022/12/31 08:34:07;;;;;;;2.38;0.57;;;18.00;56.00;;;;;;5041651;28;20400;-47
2022/12/31 08:36:45;;;;;;;3.58;0.65;;;18.00;55.90;;;;;;5044469;28;20068;-50
2022/12/31 08:39:21;;;;;;;0.80;0.40;;;18.00;55.80;;;;;;5040719;28;20516;-47
2022/12/31 08:41:51;;;;;;;3.92;0.60;;;18.00;55.80;;;;;;5043330;28;20053;-48
2022/12/31 08:44:24;;;;;;;2.60;0.80;;;18.00;56.00;;;;;;5043768;28;20056;-50
2022/12/31 08:46:59;;;;;;;5.32;1.27;;;18.00;56.00;;;;;;5041349;28;20044;-48
2022/12/31 08:49:30;;;;;;;2.88;0.90;;;18.10;56.00;;;;;;5043155;28;20053;-47
2022/12/31 08:51:58;;;;;;;1.10;0.60;;;18.10;55.90;;;;;;5044781;28;20412;-48
2022/12/31 08:54:26;;;;;;;2.55;0.63;;;18.00;55.80;;;;;;5041000;28;20057;-49
2022/12/31 08:57:00;;;;;;;2.38;0.90;;;18.10;55.80;;;;;;5043223;28;20060;-52
2022/12/31 08:59:37;;;;;;;1.83;0.70;;;18.10;55.40;;;;;;5042114;28;20049;-51
2022/12/31 09:02:33;;;;;;;3.58;0.68;;;18.00;55.50;;;;;;5043788;28;20489;-44
2022/12/31 09:05:12;;;;;;;3.53;0.65;;;18.10;55.60;;;;;;5041083;28;20053;-46
2022/12/31 09:07:48;;;;;;;2.20;0.47;;;18.10;55.70;;;;;;5043651;28;20053;-51
2022/12/31 09:10:20;;;;;;;2.45;0.77;;;18.10;55.80;;;;;;5042794;28;20057;-48
2022/12/31 09:12:55;;;;;;;2.58;1.10;;;18.10;55.80;;;;;;5044666;28;20059;-48
2022/12/31 09:15:29;;;;;;;4.25;0.70;;;18.10;55.80;;;;;;5043843;28;20508;-48
2022/12/31 09:17:57;;;;;;;1.10;0.60;;;18.10;55.70;;;;;;5042785;28;20056;-50
2022/12/31 09:20:29;;;;;;;5.55;0.70;;;18.10;55.60;;;;;;5040568;28;20053;-49
2022/12/31 09:22:57;;;;;;;6.25;0.90;;;18.10;55.60;;;;;;5042927;28;20049;-49
2022/12/31 09:25:26;;;;;;;1.45;0.60;;;18.10;55.70;;;;;;5035299;28;20048;-49
2022/12/31 09:28:14;;;;;;;5.05;0.88;;;18.10;55.80;;;;;;5039839;28;20049;-48
2022/12/31 09:30:50;;;;;;;2.85;0.70;;;18.10;55.90;;;;;;5042593;28;20053;-46
2022/12/31 09:33:31;;;;;;;3.78;0.93;;;18.20;56.00;;;;;;5043086;28;20057;-49
2022/12/31 09:36:03;;;;;;;1.70;0.80;;;18.10;55.70;;;;;;5042858;28;20065;-52
2022/12/31 09:38:40;;;;;;;7.28;0.80;;;18.20;55.40;;;;;;5041294;28;20480;-49
2022/12/31 09:41:25;;;;;;;2.53;0.63;;;18.20;55.60;;;;;;5037266;28;20045;-44
2022/12/31 09:44:40;;;;;;;4.03;0.90;;;18.20;55.70;;;;;;5042717;28;20060;-46
2022/12/31 09:47:46;;;;;;;3.03;1.00;;;18.30;55.70;;;;;;5042308;28;20057;-49
2022/12/31 09:50:36;;;;;;;7.13;1.00;;;18.30;55.40;;;;;;5043192;28;20064;-51
2022/12/31 09:53:52;;;;;;;3.10;0.77;;;18.30;55.40;;;;;;5043443;28;20067;-47
2022/12/31 09:56:25;;;;;;;2.38;0.70;;;18.30;55.40;;;;;;5003189;28;20048;-52
2022/12/31 09:59:02;;;;;;;2.55;1.35;;;18.30;55.30;;;;;;5038606;28;20057;-48
2022/12/31 10:01:41;;;;;;;2.58;0.73;;;18.30;55.20;;;;;;5039392;28;20045;-48
2022/12/31 10:04:43;;;;;;;1.52;0.68;;;18.30;55.30;;;;;;5040189;28;20056;-48
2022/12/31 10:07:31;;;;;;;2.33;0.80;;;18.30;55.20;;;;;;5042341;28;20060;-47
2022/12/31 10:10:09;;;;;;;5.28;0.90;;;18.30;55.10;;;;;;5039448;28;20405;-51
2022/12/31 10:13:10;;;;;;;1.95;0.70;;;18.30;54.90;;;;;;5038141;28;20501;-50
2022/12/31 10:15:59;;;;;;;2.92;0.65;;;18.30;54.90;;;;;;5001826;28;20052;-49
2022/12/31 10:18:55;;;;;;;2.65;1.02;;;18.30;55.10;;;;;;5040489;28;20060;-49
2022/12/31 10:21:36;;;;;;;2.67;0.73;;;18.30;55.10;;;;;;4969750;28;20051;-52
2022/12/31 10:24:27;;;;;;;3.17;0.68;;;18.30;55.10;;;;;;5035680;28;20057;-47
2022/12/31 10:27:12;;;;;;;1.50;0.80;;;18.30;55.20;;;;;;5038345;28;20480;-50
2022/12/31 10:29:47;;;;;;;3.55;0.80;;;18.30;55.10;;;;;;5037913;28;20057;-47
2022/12/31 10:32:16;;;;;;;;;;;18.30;55.20;;;;;;5035210;28;20053;-53
2022/12/31 10:34:54;;;;;;;2.88;1.55;;;18.30;55.30;;;;;;5039554;28;19920;-50
2022/12/31 10:37:27;;;;;;;2.70;0.98;;;18.30;55.20;;;;;;5039229;28;20064;-51
2022/12/31 10:40:20;;;;;;;2.40;1.00;;;18.40;55.10;;;;;;5038989;28;20056;-49
2022/12/31 10:43:29;;;;;;;3.15;1.25;;;18.40;54.80;;;;;;5036748;28;20492;-46
2022/12/31 10:46:47;;;;;;;2.63;1.00;;;18.40;55.10;;;;;;5033995;28;20715;-44
2022/12/31 10:49:42;;;;;;;4.30;1.77;;;18.40;55.00;;;;;;5006399;28;20053;-50
2022/12/31 10:53:00;;;;;;;3.60;2.30;;;18.40;54.90;;;;;;5025471;28;20084;-49
2022/12/31 10:56:00;;;;;;;4.80;1.50;;;18.40;54.80;;;;;;4961598;28;20102;-47
2022/12/31 10:59:16;;;;;;;2.72;0.90;;;18.40;54.80;;;;;;4963638;28;20063;-51
2022/12/31 11:01:48;;;;;;;;;;;18.40;55.00;;;;;;5039176;28;20515;-48
2022/12/31 11:04:40;;;;;;;2.88;1.05;;;18.50;55.00;;;;;;5041819;28;19924;-50
2022/12/31 11:07:46;;;;;;;2.60;1.10;;;18.40;54.60;;;;;;5045002;28;20524;-49
2022/12/31 11:10:44;;;;;;;4.05;1.33;;;18.40;54.70;;;;;;5001437;28;20056;-47
2022/12/31 11:13:37;;;;;;;2.97;1.15;;;18.40;54.70;;;;;;5042992;28;20049;-50
2022/12/31 11:16:20;;;;;;;2.03;0.68;;;18.40;54.80;;;;;;5044879;28;20087;-47
2022/12/31 11:18:57;;;;;;;4.65;0.93;;;18.40;54.70;;;;;;5041812;28;20492;-49
2022/12/31 11:21:40;;;;;;;3.08;1.10;;;18.40;54.70;;;;;;5044601;28;20500;-46
2022/12/31 11:24:17;;;;;;;7.35;0.82;;;18.50;54.70;;;;;;5037875;28;20080;-52
2022/12/31 11:26:59;;;;;;;2.50;1.35;;;18.50;54.50;;;;;;5038943;28;20052;-53
2022/12/31 11:29:48;;;;;;;6.03;1.73;;;18.40;54.50;;;;;;5043671;28;20079;-45
2022/12/31 11:32:29;;;;;;;5.10;1.40;;;18.50;54.70;;;;;;5042730;28;20044;-51
2022/12/31 11:35:17;;;;;;;2.10;0.95;;;18.50;54.70;;;;;;5041493;28;20057;-48
2022/12/31 11:37:49;;;;;;;3.47;1.20;;;18.50;54.70;;;;;;5040823;28;20057;-46
2022/12/31 11:40:39;;;;;;;3.28;1.20;;;18.50;54.60;;;;;;5037813;28;20049;-47
2022/12/31 11:43:18;;;;;;;2.60;1.30;;;18.50;54.40;;;;;;5045649;28;20139;-52
2022/12/31 11:46:12;;;;;;;4.03;1.13;;;18.50;54.30;;;;;;5044099;28;20063;-50
2022/12/31 11:48:49;;;;;;;3.97;1.40;;;18.50;54.30;;;;;;5040519;28;20515;-51
2022/12/31 11:51:35;;;;;;;3.22;1.00;;;18.50;54.30;;;;;;5043353;28;20511;-50
2022/12/31 11:54:25;;;;;;;5.53;1.60;;;18.50;54.30;;;;;;5041680;28;20063;-49
2022/12/31 11:57:02;;;;;;;4.10;1.95;;;18.50;54.40;;;;;;5044139;28;20068;-49
2022/12/31 11:59:29;;;;;;;5.35;1.70;;;18.50;54.40;;;;;;5044855;28;20448;-47
2022/12/31 12:02:02;;;;;;;5.53;1.50;;;18.50;54.40;;;;;;5044547;28;20478;-51
2022/12/31 12:04:30;;;;;;;3.85;1.38;;;18.50;54.50;;;;;;5045586;28;20052;-49
2022/12/31 12:06:58;;;;;;;2.97;1.30;;;18.50;54.40;;;;;;5044245;28;20064;-49
2022/12/31 12:09:30;;;;;;;4.80;1.83;;;18.60;54.40;;;;;;5038105;28;20056;-50
2022/12/31 12:12:01;;;;;;;3.47;1.35;;;18.60;54.30;;;;;;5044316;28;20049;-49
2022/12/31 12:14:34;;;;;;;4.72;1.83;;;18.60;54.20;;;;;;5044940;28;20049;-49
2022/12/31 12:17:02;;;;;;;4.40;1.70;;;18.60;54.10;;;;;;5044824;28;20532;-51
2022/12/31 12:19:32;;;;;;;4.32;1.17;;;18.60;54.10;;;;;;5045148;28;20053;-53
2022/12/31 12:22:08;;;;;;;6.72;1.20;;;18.60;54.10;;;;;;5043688;28;20630;-49
2022/12/31 12:24:37;;;;;;;4.65;1.70;;;18.60;54.00;;;;;;5041538;28;20485;-54
2022/12/31 12:27:04;;;;;;;7.72;1.70;;;18.60;54.00;;;;;;5044735;28;20064;-49
2022/12/31 12:29:34;;;;;;;3.78;1.88;;;18.60;54.10;;;;;;5044800;28;20056;-47
2022/12/31 12:32:04;;;;;;;2.85;1.10;;;18.70;54.00;;;;;;5044910;28;20053;-46
2022/12/31 12:34:33;;;;;;;3.58;1.50;;;18.60;54.10;;;;;;5044739;28;20084;-49
2022/12/31 12:37:01;;;;;;;4.05;1.60;;;18.70;54.00;;;;;;5043164;28;20061;-49
2022/12/31 12:39:31;;;;;;;6.38;1.33;;;18.70;54.00;;;;;;5038755;28;20413;-47
2022/12/31 12:42:05;;;;;;;4.18;1.50;;;18.70;53.90;;;;;;5044505;28;20064;-44
2022/12/31 12:44:34;;;;;;;4.35;1.25;;;18.70;53.80;;;;;;5044179;28;20409;-50
2022/12/31 12:47:03;;;;;;;4.85;1.70;;;18.70;53.80;;;;;;5044187;28;20057;-49
2022/12/31 12:49:37;;;;;;;5.18;1.73;;;18.70;53.90;;;;;;5045172;28;20473;-50
2022/12/31 12:52:19;;;;;;;5.60;1.45;;;18.70;53.70;;;;;;5042609;28;20056;-46
2022/12/31 12:55:04;;;;;;;3.40;1.10;;;18.70;53.70;;;;;;5041137;28;20060;-47
2022/12/31 12:57:41;;;;;;;3.97;1.02;;;18.70;53.60;;;;;;5042497;28;20084;-50
2022/12/31 13:00:16;;;;;;;4.05;1.02;;;18.80;53.80;;;;;;5043655;28;20063;-48
2022/12/31 13:03:06;;;;;;;4.63;1.08;;;18.80;53.60;;;;;;5042051;28;20052;-45
2022/12/31 13:05:48;;;;;;;3.67;1.50;;;18.80;53.80;;;;;;5043863;28;20057;-48
2022/12/31 13:08:28;;;;;;;4.20;1.35;;;18.80;53.70;;;;;;5039614;28;20053;-52
2022/12/31 13:11:10;;;;;;;6.85;1.55;;;18.80;53.50;;;;;;5043024;28;20416;-50
2022/12/31 13:13:47;;;;;;;4.45;1.23;;;18.80;53.40;;;;;;5044536;28;20053;-48
2022/12/31 13:16:22;;;;;;;3.25;1.60;;;18.80;53.50;;;;;;5042721;28;20934;-48
2022/12/31 13:18:57;;;;;;;3.63;0.90;;;18.80;53.50;;;;;;5042496;28;20048;-51
2022/12/31 13:21:33;;;;;;;5.13;1.13;;;18.80;53.50;;;;;;5040275;28;20499;-48
2022/12/31 13:24:11;;;;;;;3.28;1.35;;;18.80;53.50;;;;;;5040976;28;20060;-47
2022/12/31 13:26:47;;;;;;;3.80;1.63;;;18.80;53.30;;;;;;5043295;28;20060;-47
2022/12/31 13:29:20;;;;;;;6.80;1.20;;;18.80;53.20;;;;;;5043599;28;20421;-49
2022/12/31 13:31:49;;;;;;;4.82;1.52;;;18.80;53.20;;;;;;5044461;28;20473;-48
2022/12/31 13:34:19;;;;;;;3.40;1.10;;;18.80;53.30;;;;;;5040812;28;20048;-46
2022/12/31 13:36:48;;;;;;;4.38;1.08;;;18.80;53.30;;;;;;5038576;28;20056;-46